Air Quality Table

TIMESTAMP NO2 SO2 O3 PM10 PM2.5 CO TEMP HUM AIRPRES WS WD NO BENZENE
2022-10-02 16:00 13.03 µg/m3 0.43 µg/m3 72.8 µg/m3 11.77 µg/m3 5.3 µg/m3 0.18 mg/m3 25.15 °C 61.23 % 1,021.88 mbar 2.77 m/s 304.67 Deg 6.16 µg/m3 0.84 µg/m3
2022-10-02 15:00 12.91 µg/m3 0.43 µg/m3 76.51 µg/m3 14.62 µg/m3 5.9 µg/m3 0.15 mg/m3 25.54 °C 56.46 % 1,022.29 mbar 2.78 m/s 289 Deg 4.35 µg/m3 0.68 µg/m3
2022-10-02 14:00 14.63 µg/m3 0.39 µg/m3 74.8 µg/m3 13.91 µg/m3 5.53 µg/m3 0.14 mg/m3 25.64 °C 54.45 % 1,022.82 mbar 2.74 m/s 300.52 Deg 4.28 µg/m3 0.89 µg/m3
2022-10-02 13:00 11.24 µg/m3 0.42 µg/m3 74.03 µg/m3 11.74 µg/m3 4.67 µg/m3 0.14 mg/m3 25.63 °C 52.13 % 1,023.41 mbar 2.75 m/s 284.9 Deg 3.61 µg/m3 0.73 µg/m3
2022-10-02 12:00 14.22 µg/m3 0.37 µg/m3 72.38 µg/m3 12.56 µg/m3 5.05 µg/m3 0.15 mg/m3 25.53 °C 51.28 % 1,023.97 mbar 2.73 m/s 278.6 Deg 4.1 µg/m3 0.84 µg/m3
2022-10-02 11:00 17.23 µg/m3 0.4 µg/m3 68.71 µg/m3 11.02 µg/m3 4.04 µg/m3 0.15 mg/m3 25.27 °C 49.6 % 1,024.12 mbar 2.21 m/s 280.08 Deg 5.14 µg/m3 0.84 µg/m3
2022-10-02 10:00 14.66 µg/m3 0.39 µg/m3 66.3 µg/m3 9.85 µg/m3 3.7 µg/m3 0.15 mg/m3 24.72 °C 48.19 % 1,024.00 mbar 2.33 m/s 294.62 Deg 5.75 µg/m3 0.89 µg/m3
2022-10-02 09:00 16.4 µg/m3 0.35 µg/m3 64.2 µg/m3 9.51 µg/m3 3.55 µg/m3 0.14 mg/m3 24.38 °C 48.6 % 1,024.01 mbar 2.23 m/s 301.23 Deg 5.43 µg/m3 0.79 µg/m3
2022-10-02 08:00 16.94 µg/m3 0.4 µg/m3 61.75 µg/m3 8.64 µg/m3 3.36 µg/m3 0.14 mg/m3 23.83 °C 50.53 % 1,023.57 mbar 1.92 m/s 298.25 Deg 3.69 µg/m3 0.73 µg/m3
2022-10-02 07:00 13.94 µg/m3 0.3 µg/m3 63.54 µg/m3 6.09 µg/m3 2.48 µg/m3 0.1 mg/m3 22.89 °C 53.57 % 1,023.22 mbar 1.98 m/s 298.65 Deg 1.79 µg/m3 0.63 µg/m3
2022-10-02 06:00 13.13 µg/m3 0.34 µg/m3 64.4 µg/m3 6.42 µg/m3 2.88 µg/m3 0.11 mg/m3 22.53 °C 59.04 % 1,023.17 mbar 1.97 m/s 294.38 Deg 1.41 µg/m3 0.58 µg/m3
2022-10-02 05:00 9.63 µg/m3 0.33 µg/m3 67.04 µg/m3 5.93 µg/m3 2.67 µg/m3 0.08 mg/m3 22.62 °C 56.89 % 1,023.00 mbar 2.23 m/s 295.12 Deg 1.09 µg/m3 0.47 µg/m3
2022-10-02 04:00 6.36 µg/m3 0.34 µg/m3 71.22 µg/m3 7.76 µg/m3 3.02 µg/m3 0.09 mg/m3 22.69 °C 59.04 % 1,022.91 mbar 2.51 m/s 288.77 Deg 1.08 µg/m3 0.37 µg/m3
2022-10-02 03:00 5.74 µg/m3 0.31 µg/m3 71.24 µg/m3 8.6 µg/m3 3.14 µg/m3 0.13 mg/m3 22.8 °C 58.21 % 1,022.96 mbar 2.87 m/s 289.05 Deg 0.46 µg/m3 0.47 µg/m3
2022-10-02 02:00 10.31 µg/m3 0.27 µg/m3 66.39 µg/m3 10.05 µg/m3 3.54 µg/m3 0.14 mg/m3 22.85 °C 58.26 % 1,023.01 mbar 2.84 m/s 294.27 Deg 1.23 µg/m3 0.68 µg/m3
2022-10-02 01:00 19.84 µg/m3 0.27 µg/m3 58.89 µg/m3 11.79 µg/m3 4.25 µg/m3 0.17 mg/m3 23.01 °C 56.76 % 1,023.02 mbar 2.86 m/s 282.75 Deg 2.81 µg/m3 0.73 µg/m3
2022-10-02 00:00 20.57 µg/m3 0.27 µg/m3 57.99 µg/m3 11.63 µg/m3 4.55 µg/m3 0.17 mg/m3 23.49 °C 55.27 % 1,022.75 mbar 2.45 m/s 274.37 Deg 2.9 µg/m3 0.84 µg/m3
2022-10-01 23:00 21.25 µg/m3 0.27 µg/m3 55.08 µg/m3 13.42 µg/m3 6.34 µg/m3 0.2 mg/m3 23.91 °C 57.56 % 1,022.21 mbar 2.47 m/s 274.72 Deg 2.83 µg/m3 0.94 µg/m3
2022-10-01 22:00 17.98 µg/m3 0.26 µg/m3 54.95 µg/m3 13.7 µg/m3 6.09 µg/m3 0.21 mg/m3 24.43 °C 63.61 % 1,021.93 mbar 2.83 m/s 278.65 Deg 3.21 µg/m3 1 µg/m3
2022-10-01 21:00 19.61 µg/m3 0.3 µg/m3 53.79 µg/m3 15.62 µg/m3 7.39 µg/m3 0.23 mg/m3 24.8 °C 64.86 % 1,021.39 mbar 2.99 m/s 279.38 Deg 3.16 µg/m3 1.21 µg/m3
2022-10-01 20:00 29.52 µg/m3 0.37 µg/m3 47.85 µg/m3 21.29 µg/m3 10.92 µg/m3 0.27 mg/m3 25.19 °C 65.44 % 1,020.56 mbar 2.7 m/s 269.62 Deg 7.37 µg/m3 1.52 µg/m3
2022-10-01 19:00 31 µg/m3 0.32 µg/m3 49.77 µg/m3 16.13 µg/m3 8.54 µg/m3 0.28 mg/m3 25.45 °C 68.28 % 1,019.72 mbar 2.83 m/s 270.73 Deg 6.52 µg/m3 1.42 µg/m3
2022-10-01 18:00 31.04 µg/m3 0.33 µg/m3 55.43 µg/m3 16.94 µg/m3 8.1 µg/m3 0.29 mg/m3 26.33 °C 64.24 % 1,019.33 mbar 2.37 m/s 266.43 Deg 4.45 µg/m3 1 µg/m3
2022-10-01 17:00 22.16 µg/m3 0.32 µg/m3 62.88 µg/m3 16.33 µg/m3 6.53 µg/m3 0.24 mg/m3 26.7 °C 63.74 % 1,018.96 mbar 2.93 m/s 277.32 Deg 4.58 µg/m3 0.84 µg/m3
2022-10-01 16:00 16.24 µg/m3 0.29 µg/m3 64.97 µg/m3 20.57 µg/m3 7.77 µg/m3 0.22 mg/m3 26.99 °C 69 % 1,018.52 mbar 3.26 m/s 288.65 Deg 3.76 µg/m3 0.84 µg/m3
2022-10-01 15:00 16.43 µg/m3 0.22 µg/m3 62.17 µg/m3 19.77 µg/m3 7.96 µg/m3 0.22 mg/m3 27.7 °C 68.14 % 1,018.02 mbar 2.7 m/s 293.47 Deg 4.46 µg/m3 0.84 µg/m3
2022-10-01 14:00 18.45 µg/m3 0.26 µg/m3 58.7 µg/m3 21.69 µg/m3 9.02 µg/m3 0.24 mg/m3 27.78 °C 69.45 % 1,018.18 mbar 2.82 m/s 300.92 Deg 5.01 µg/m3 0.94 µg/m3
2022-10-01 13:00 24.37 µg/m3 0.28 µg/m3 56.87 µg/m3 28.87 µg/m3 11.67 µg/m3 0.3 mg/m3 27.32 °C 73.64 % 1,018.10 mbar 2.46 m/s 306 Deg 7.96 µg/m3 1.57 µg/m3
2022-10-01 12:00 25.34 µg/m3 0.35 µg/m3 61.64 µg/m3 26.45 µg/m3 11.33 µg/m3 0.37 mg/m3 26.85 °C 78.29 % 1,017.78 mbar 2.15 m/s 176.37 Deg 15.67 µg/m3 1.42 µg/m3
2022-10-01 11:00 29.97 µg/m3 0.38 µg/m3 57.86 µg/m3 26.87 µg/m3 11.85 µg/m3 0.38 mg/m3 26.87 °C 78.4 % 1,017.07 mbar 2.2 m/s 21.15 Deg 22.32 µg/m3 1.47 µg/m3
2022-10-01 10:00 29.14 µg/m3 0.4 µg/m3 54.82 µg/m3 26.76 µg/m3 12.57 µg/m3 0.4 mg/m3 26.58 °C 80.82 % 1,016.40 mbar 2.26 m/s 28.08 Deg 20.1 µg/m3 1.68 µg/m3
2022-10-01 09:00 22.66 µg/m3 0.41 µg/m3 56.95 µg/m3 19.11 µg/m3 12.87 µg/m3 0.37 mg/m3 26.08 °C 82.69 % 1,015.36 mbar 2.94 m/s 32.47 Deg 20.27 µg/m3 1.63 µg/m3
2022-10-01 08:00 20 µg/m3 0.35 µg/m3 54.81 µg/m3 17.28 µg/m3 11.66 µg/m3 0.38 mg/m3 25.62 °C 84.52 % 1,014.36 mbar 2.78 m/s 34.5 Deg 19.55 µg/m3 1.15 µg/m3
2022-10-01 07:00 20.12 µg/m3 0.32 µg/m3 52.29 µg/m3 16.32 µg/m3 11.29 µg/m3 0.29 mg/m3 25.38 °C 86.2 % 1,013.54 mbar 3.15 m/s 37.62 Deg 10.25 µg/m3 0.68 µg/m3
2022-10-01 06:00 9.4 µg/m3 0.28 µg/m3 63.83 µg/m3 14.83 µg/m3 10.51 µg/m3 0.24 mg/m3 25.22 °C 86.85 % 1,012.92 mbar 3.91 m/s 41.23 Deg 8.98 µg/m3 0.73 µg/m3
2022-10-01 05:00 11.18 µg/m3 0.27 µg/m3 58.89 µg/m3 17.23 µg/m3 11.97 µg/m3 0.22 mg/m3 25.53 °C 87.61 % 1,012.39 mbar 3.58 m/s 37.23 Deg 5.18 µg/m3 0.73 µg/m3
2022-10-01 04:00 7.92 µg/m3 0.31 µg/m3 59.75 µg/m3 21.12 µg/m3 14.27 µg/m3 0.21 mg/m3 25.76 °C 88.65 % 1,011.84 mbar 2.22 m/s 38.58 Deg 4.26 µg/m3 0.68 µg/m3
2022-10-01 03:00 4.29 µg/m3 0.18 µg/m3 57.22 µg/m3 21.25 µg/m3 14.31 µg/m3 0.2 mg/m3 25.9 °C 88.72 % 1,011.55 mbar 1.89 m/s 38.42 Deg 3.99 µg/m3 1 µg/m3
2022-10-01 02:00 12.43 µg/m3 0.19 µg/m3 54.29 µg/m3 22.31 µg/m3 14.94 µg/m3 0.18 mg/m3 26.04 °C 87.82 % 1,011.53 mbar 1.93 m/s 36.13 Deg 2.7 µg/m3 1.05 µg/m3
2022-10-01 01:00 17.06 µg/m3 0.22 µg/m3 50.9 µg/m3 21.05 µg/m3 14.22 µg/m3 0.22 mg/m3 26.02 °C 86.21 % 1,011.39 mbar 2.09 m/s 61.02 Deg 5.79 µg/m3 0.89 µg/m3
2022-10-01 00:00 20.36 µg/m3 0.29 µg/m3 49.52 µg/m3 19.4 µg/m3 13.21 µg/m3 0.27 mg/m3 26.08 °C 84.96 % 1,011.24 mbar 2.4 m/s 78.78 Deg 12.17 µg/m3 1.05 µg/m3
2022-09-30 23:00 20.13 µg/m3 0.28 µg/m3 51.6 µg/m3 18.02 µg/m3 12.34 µg/m3 0.27 mg/m3 26.17 °C 83.41 % 1,011.25 mbar 2.53 m/s 149.58 Deg 10.95 µg/m3 1 µg/m3
2022-09-30 22:00 29.45 µg/m3 0.26 µg/m3 42.64 µg/m3 17.58 µg/m3 11.92 µg/m3 0.3 mg/m3 26.03 °C 84.08 % 1,010.79 mbar 2.09 m/s 51.83 Deg 11.58 µg/m3 0.89 µg/m3
2022-09-30 21:00 16.09 µg/m3 0.25 µg/m3 49.69 µg/m3 15.25 µg/m3 10.52 µg/m3 0.24 mg/m3 26.03 °C 83.15 % 1,010.49 mbar 3.39 m/s 77.5 Deg 11.87 µg/m3 0.84 µg/m3
2022-09-30 20:00 24.17 µg/m3 0.33 µg/m3 38.94 µg/m3 15.09 µg/m3 10.59 µg/m3 0.28 mg/m3 25.9 °C 84.32 % 1,009.66 mbar 4.04 m/s 80.37 Deg 17.36 µg/m3 1 µg/m3
2022-09-30 19:00 31.85 µg/m3 0.38 µg/m3 32.07 µg/m3 13.82 µg/m3 10.11 µg/m3 0.28 mg/m3 25.82 °C 86.49 % 1,009.41 mbar 4.92 m/s 58.1 Deg 22.35 µg/m3 1 µg/m3
2022-09-30 18:00 33.39 µg/m3 0.43 µg/m3 32.62 µg/m3 14.26 µg/m3 10.16 µg/m3 0.29 mg/m3 26.05 °C 84.28 % 1,009.50 mbar 4.97 m/s 256.5 Deg 25.14 µg/m3 1.31 µg/m3
2022-09-30 17:00 30.51 µg/m3 0.49 µg/m3 40.78 µg/m3 15.21 µg/m3 10.56 µg/m3 0.36 mg/m3 26.27 °C 83.19 % 1,010.33 mbar 4.64 m/s 61.75 Deg 31.65 µg/m3 2.36 µg/m3
2022-09-30 16:00 41.37 µg/m3 0.58 µg/m3 34.74 µg/m3 18.09 µg/m3 12.18 µg/m3 0.4 mg/m3 26.88 °C 79.16 % 1,010.98 mbar 2.7 m/s 124.33 Deg 39.41 µg/m3 1.89 µg/m3
2022-09-30 15:00 38.01 µg/m3 0.61 µg/m3 36.98 µg/m3 17.21 µg/m3 11.69 µg/m3 0.39 mg/m3 26.88 °C 79.32 % 1,009.88 mbar 3.74 m/s 79 Deg 42.83 µg/m3 1.99 µg/m3
2022-09-30 14:00 38.28 µg/m3 0.51 µg/m3 47.32 µg/m3 17.11 µg/m3 10.78 µg/m3 0.39 mg/m3 27.23 °C 76.82 % 1,010.71 mbar 3.68 m/s 280.83 Deg 29.96 µg/m3 1.36 µg/m3
2022-09-30 13:00 31.52 µg/m3 0.47 µg/m3 51.48 µg/m3 27.05 µg/m3 11.05 µg/m3 0.37 mg/m3 28.01 °C 72.16 % 1,010.87 mbar 3.81 m/s 177.52 Deg 32.6 µg/m3 1.26 µg/m3
2022-09-30 12:00 29.74 µg/m3 0.47 µg/m3 56.19 µg/m3 24.88 µg/m3 10.88 µg/m3 0.36 mg/m3 27.36 °C 74.64 % 1,011.02 mbar 4.52 m/s 185.52 Deg 34.85 µg/m3 1.63 µg/m3
2022-09-30 11:00 27.73 µg/m3 0.47 µg/m3 57.53 µg/m3 24.46 µg/m3 9.95 µg/m3 0.34 mg/m3 27.18 °C 74.47 % 1,011.17 mbar 4.32 m/s 82.42 Deg 33.34 µg/m3 1.15 µg/m3
2022-09-30 10:00 29.12 µg/m3 0.46 µg/m3 55.26 µg/m3 21.35 µg/m3 8.52 µg/m3 0.31 mg/m3 26.97 °C 74.4 % 1,011.13 mbar 4 m/s 82.37 Deg 27.58 µg/m3 1.26 µg/m3
2022-09-30 09:00 33.86 µg/m3 0.47 µg/m3 49.35 µg/m3 21.4 µg/m3 7.93 µg/m3 0.32 mg/m3 26.58 °C 74.36 % 1,010.41 mbar 3.69 m/s 43.42 Deg 32.27 µg/m3 1.73 µg/m3
2022-09-30 08:00 43.1 µg/m3 0.6 µg/m3 38.2 µg/m3 18.98 µg/m3 7.42 µg/m3 0.38 mg/m3 26.1 °C 74.9 % 1,010.31 mbar 2.5 m/s 70.03 Deg 38.11 µg/m3 2.41 µg/m3
2022-09-30 07:00 52.3 µg/m3 0.6 µg/m3 31.16 µg/m3 12.15 µg/m3 8.25 µg/m3 0.5 mg/m3 25.66 °C 76.7 % 1,009.85 mbar 1.86 m/s 37.1 Deg 40.02 µg/m3 2.41 µg/m3
2022-09-30 06:00 48.23 µg/m3 0.5 µg/m3 35.41 µg/m3 10.63 µg/m3 7.44 µg/m3 0.42 mg/m3 25.45 °C 77.21 % 1,009.47 mbar 1.73 m/s 230.92 Deg 24.75 µg/m3 1.57 µg/m3
2022-09-30 05:00 36.1 µg/m3 0.41 µg/m3 37.3 µg/m3 8.74 µg/m3 6.07 µg/m3 0.25 mg/m3 25.3 °C 75.81 % 1,009.17 mbar 1.24 m/s 171.87 Deg 15.86 µg/m3 0.94 µg/m3
2022-09-30 04:00 24.12 µg/m3 0.4 µg/m3 54.18 µg/m3 7.67 µg/m3 5.48 µg/m3 0.21 mg/m3 25.22 °C 75.35 % 1,008.88 mbar 1.14 m/s 126.9 Deg 4.95 µg/m3 3.04 µg/m3
2022-09-30 03:00 21.95 µg/m3 0.28 µg/m3 52.19 µg/m3 8.81 µg/m3 5.25 µg/m3 0.19 mg/m3 25.13 °C 71.34 % 1,009.25 mbar 0.59 m/s 219.2 Deg 0.59 µg/m3 3.46 µg/m3
2022-09-30 02:00 14.04 µg/m3 0.33 µg/m3 58.88 µg/m3 10.22 µg/m3 4.76 µg/m3 0.18 mg/m3 24.92 °C 67.6 % 1,009.63 mbar 0.32 m/s 288.12 Deg 0.9 µg/m3 2.1 µg/m3
2022-09-30 01:00 15.13 µg/m3 0.36 µg/m3 61.3 µg/m3 9.33 µg/m3 4.4 µg/m3 0.17 mg/m3 24.96 °C 66.55 % 1,009.73 mbar 0.63 m/s 186 Deg 0.99 µg/m3 2.2 µg/m3
2022-09-30 00:00 28.21 µg/m3 0.38 µg/m3 53.05 µg/m3 10.25 µg/m3 4.85 µg/m3 0.24 mg/m3 24.96 °C 67.25 % 1,009.99 mbar 0.69 m/s 208.32 Deg 7.35 µg/m3 2.36 µg/m3
2022-09-29 23:00 22.75 µg/m3 0.35 µg/m3 55.95 µg/m3 9.95 µg/m3 4.99 µg/m3 0.25 mg/m3 24.92 °C 67.84 % 1,010.35 mbar 0.87 m/s 150.57 Deg 5.61 µg/m3 1.52 µg/m3
2022-09-29 22:00 36.43 µg/m3 0.34 µg/m3 49.2 µg/m3 12 µg/m3 5.7 µg/m3 0.27 mg/m3 24.95 °C 66.43 % 1,010.14 mbar 0.79 m/s 229.83 Deg 4.64 µg/m3 4.36 µg/m3
2022-09-29 21:00 57.72 µg/m3 0.55 µg/m3 35.09 µg/m3 20.43 µg/m3 7.7 µg/m3 0.43 mg/m3 25.18 °C 64.15 % 1,010.05 mbar 0.65 m/s 207.6 Deg 21.17 µg/m3 1.94 µg/m3
2022-09-29 20:00 47.28 µg/m3 0.41 µg/m3 46.71 µg/m3 19.68 µg/m3 6.88 µg/m3 0.34 mg/m3 25.41 °C 62.8 % 1,009.71 mbar 0.9 m/s 151.87 Deg 12.38 µg/m3 1.78 µg/m3
2022-09-29 19:00 30.91 µg/m3 0.34 µg/m3 62.32 µg/m3 18.36 µg/m3 6.32 µg/m3 0.26 mg/m3 25.63 °C 61.53 % 1,009.40 mbar 1.09 m/s 194.15 Deg 3.93 µg/m3 1.21 µg/m3
2022-09-29 18:00 30.97 µg/m3 0.38 µg/m3 65.35 µg/m3 14.94 µg/m3 5.23 µg/m3 0.26 mg/m3 26.05 °C 58.97 % 1,009.11 mbar 1.76 m/s 188.25 Deg 7.84 µg/m3 1.1 µg/m3
2022-09-29 17:00 24.25 µg/m3 0.35 µg/m3 67.58 µg/m3 12.7 µg/m3 4.38 µg/m3 0.2 mg/m3 26.73 °C 54.67 % 1,008.95 mbar 2.11 m/s 191.27 Deg 7.65 µg/m3 1 µg/m3
2022-09-29 16:00 23.28 µg/m3 0.4 µg/m3 67.67 µg/m3 15.29 µg/m3 4.83 µg/m3 0.21 mg/m3 27.11 °C 53.38 % 1,008.82 mbar 2.38 m/s 180.15 Deg 9.93 µg/m3 1 µg/m3
2022-09-29 15:00 30.51 µg/m3 0.39 µg/m3 66.68 µg/m3 16.74 µg/m3 5.05 µg/m3 0.21 mg/m3 27.47 °C 51.85 % 1,009.20 mbar 2.28 m/s 186.72 Deg 13.68 µg/m3 0.79 µg/m3
2022-09-29 14:00 19.58 µg/m3 0.31 µg/m3 71.41 µg/m3 16.22 µg/m3 4.88 µg/m3 0.17 mg/m3 27.25 °C 53.97 % 1,009.42 mbar 2.85 m/s 201.67 Deg 8.27 µg/m3 0.73 µg/m3
2022-09-29 13:00 18.31 µg/m3 0.32 µg/m3 75.28 µg/m3 14.25 µg/m3 4.61 µg/m3 0.16 mg/m3 27.03 °C 53.28 % 1,009.68 mbar 2.91 m/s 203.57 Deg 6.05 µg/m3 0.79 µg/m3
2022-09-29 12:00 20.38 µg/m3 0.34 µg/m3 72.29 µg/m3 19.1 µg/m3 5.12 µg/m3 0.16 mg/m3 27.02 °C 53.25 % 1,010.13 mbar 2.63 m/s 206.03 Deg 6.71 µg/m3 0.84 µg/m3
2022-09-29 11:00 20.17 µg/m3 0.35 µg/m3 70.85 µg/m3 18.26 µg/m3 4.94 µg/m3 0.17 mg/m3 26.85 °C 52.62 % 1,010.36 mbar 2.47 m/s 207.22 Deg 5.48 µg/m3 1 µg/m3
2022-09-29 10:00 25.27 µg/m3 0.37 µg/m3 64.6 µg/m3 17.91 µg/m3 4.83 µg/m3 0.17 mg/m3 26.37 °C 55.35 % 1,010.34 mbar 2.57 m/s 205.17 Deg 6.16 µg/m3 1.1 µg/m3
2022-09-29 09:00 33.94 µg/m3 0.41 µg/m3 56.8 µg/m3 26.17 µg/m3 6.28 µg/m3 0.2 mg/m3 25.82 °C 58.69 % 1,010.11 mbar 2.26 m/s 214.22 Deg 8.03 µg/m3 2.94 µg/m3
2022-09-29 08:00 84.72 µg/m3 1.08 µg/m3 17.46 µg/m3 77.03 µg/m3 16.01 µg/m3 0.52 mg/m3 24.63 °C 64.14 % 1,010.09 mbar 1.22 m/s 221.35 Deg 54.2 µg/m3 7.24 µg/m3
2022-09-29 07:00 96.41 µg/m3 1.7 µg/m3 3.29 µg/m3 58.69 µg/m3 16.38 µg/m3 0.85 mg/m3 23 °C 69.02 % 1,009.98 mbar 1.06 m/s 223.15 Deg 105.43 µg/m3 7.24 µg/m3
2022-09-29 06:00 79.35 µg/m3 1.41 µg/m3 3.76 µg/m3 22.13 µg/m3 12.97 µg/m3 0.84 mg/m3 21.99 °C 71.75 % 1,009.91 mbar 0.91 m/s 229.07 Deg 88.75 µg/m3 3.73 µg/m3
2022-09-29 05:00 53.66 µg/m3 0.43 µg/m3 10.27 µg/m3 11.01 µg/m3 7.43 µg/m3 0.29 mg/m3 21.88 °C 72.01 % 1,009.96 mbar 0.95 m/s 235.62 Deg 14.25 µg/m3 1.89 µg/m3
2022-09-29 04:00 28.94 µg/m3 0.42 µg/m3 30.85 µg/m3 7.89 µg/m3 5.42 µg/m3 0.19 mg/m3 21.84 °C 72.24 % 1,009.86 mbar 0.98 m/s 235.82 Deg 6.15 µg/m3 1.15 µg/m3
2022-09-29 03:00 14.09 µg/m3 0.27 µg/m3 42.49 µg/m3 7.64 µg/m3 5.06 µg/m3 0.18 mg/m3 22.05 °C 71.6 % 1,009.95 mbar 0.93 m/s 229.12 Deg 0.34 µg/m3 1.26 µg/m3
2022-09-29 02:00 24.61 µg/m3 0.27 µg/m3 42.04 µg/m3 8.91 µg/m3 5.63 µg/m3 0.19 mg/m3 22.35 °C 70.57 % 1,010.19 mbar 0.9 m/s 230 Deg 2.05 µg/m3 1.26 µg/m3
2022-09-29 01:00 27.01 µg/m3 0.28 µg/m3 39.63 µg/m3 10.18 µg/m3 5.36 µg/m3 0.24 mg/m3 22.65 °C 69.17 % 1,010.42 mbar 0.59 m/s 224.83 Deg 0.48 µg/m3 1.52 µg/m3
2022-09-29 00:00 33.81 µg/m3 0.26 µg/m3 31.39 µg/m3 15.98 µg/m3 6.46 µg/m3 0.28 mg/m3 22.75 °C 68.3 % 1,010.82 mbar 0.74 m/s 228.88 Deg 1.48 µg/m3 1.78 µg/m3
2022-09-28 23:00 28.84 µg/m3 0.27 µg/m3 41.44 µg/m3 18.31 µg/m3 8.03 µg/m3 0.25 mg/m3 23 °C 65.55 % 1,010.76 mbar 0.88 m/s 228.2 Deg 1.56 µg/m3 1.47 µg/m3
2022-09-28 22:00 34.15 µg/m3 0.34 µg/m3 38.14 µg/m3 20.55 µg/m3 9.05 µg/m3 0.27 mg/m3 23.22 °C 63.98 % 1,010.91 mbar 0.85 m/s 222 Deg 1.81 µg/m3 1.52 µg/m3
2022-09-28 21:00 35.46 µg/m3 0.35 µg/m3 43.43 µg/m3 19.56 µg/m3 8.16 µg/m3 0.28 mg/m3 23.64 °C 62.08 % 1,010.68 mbar 1.01 m/s 221.77 Deg 3.06 µg/m3 1.68 µg/m3
2022-09-28 20:00 41.19 µg/m3 0.34 µg/m3 42.7 µg/m3 21.55 µg/m3 8.65 µg/m3 0.3 mg/m3 23.93 °C 61.11 % 1,010.39 mbar 1.04 m/s 242.45 Deg 3.67 µg/m3 1.47 µg/m3
2022-09-28 19:00 45.15 µg/m3 0.36 µg/m3 47.82 µg/m3 17.95 µg/m3 8.2 µg/m3 0.29 mg/m3 24.29 °C 60.23 % 1,010.04 mbar 1.3 m/s 258.6 Deg 5.08 µg/m3 1.36 µg/m3
2022-09-28 18:00 31.72 µg/m3 0.31 µg/m3 62.42 µg/m3 12.88 µg/m3 5.68 µg/m3 0.21 mg/m3 24.71 °C 58.53 % 1,009.93 mbar 2.32 m/s 257.9 Deg 5.06 µg/m3 1.26 µg/m3
2022-09-28 17:00 29.07 µg/m3 0.34 µg/m3 64.28 µg/m3 12.66 µg/m3 5.2 µg/m3 0.21 mg/m3 25.29 °C 57.16 % 1,009.86 mbar 3.03 m/s 253.08 Deg 7.46 µg/m3 1.05 µg/m3
2022-09-28 16:00 24.24 µg/m3 0.34 µg/m3 68.33 µg/m3 15.4 µg/m3 5.79 µg/m3 0.18 mg/m3 25.84 °C 54.17 % 1,009.71 mbar 3.41 m/s 255.2 Deg 6.42 µg/m3 1 µg/m3
2022-09-28 15:00 29.33 µg/m3 0.32 µg/m3 62.41 µg/m3 19.73 µg/m3 6.03 µg/m3 0.21 mg/m3 25.95 °C 58.13 % 1,009.74 mbar 3.27 m/s 253.13 Deg 9.49 µg/m3 1 µg/m3
2022-09-28 14:00 29.28 µg/m3 0.34 µg/m3 62.9 µg/m3 21.03 µg/m3 6.6 µg/m3 0.21 mg/m3 26.06 °C 57.7 % 1,009.90 mbar 3.39 m/s 252.45 Deg 8.86 µg/m3 0.94 µg/m3
2022-09-28 13:00 25.68 µg/m3 0.31 µg/m3 66.78 µg/m3 20.18 µg/m3 6.59 µg/m3 0.19 mg/m3 26.3 °C 53.65 % 1,010.25 mbar 3.2 m/s 252.23 Deg 7.82 µg/m3 0.94 µg/m3
2022-09-28 12:00 27.92 µg/m3 0.33 µg/m3 68.14 µg/m3 19.77 µg/m3 6.16 µg/m3 0.19 mg/m3 26.14 °C 53.11 % 1,010.55 mbar 3.23 m/s 245.47 Deg 8.2 µg/m3 1.05 µg/m3
2022-09-28 11:00 29.07 µg/m3 0.34 µg/m3 67.43 µg/m3 20.29 µg/m3 5.46 µg/m3 0.2 mg/m3 25.91 °C 56.76 % 1,010.46 mbar 3.49 m/s 249.48 Deg 8.33 µg/m3 1.1 µg/m3
2022-09-28 10:00 34.09 µg/m3 0.35 µg/m3 62.39 µg/m3 18.72 µg/m3 5.25 µg/m3 0.21 mg/m3 25.67 °C 59.21 % 1,010.38 mbar 3.12 m/s 238.32 Deg 10.1 µg/m3 1.1 µg/m3
2022-09-28 09:00 46.98 µg/m3 0.42 µg/m3 52.67 µg/m3 19.84 µg/m3 5.46 µg/m3 0.24 mg/m3 25.51 °C 57.61 % 1,010.52 mbar 2.27 m/s 235.4 Deg 16.16 µg/m3 2.68 µg/m3
2022-09-28 08:00 84.21 µg/m3 0.78 µg/m3 22.46 µg/m3 54.09 µg/m3 12.44 µg/m3 0.49 mg/m3 24.56 °C 62.8 % 1,010.55 mbar 1.18 m/s 229.32 Deg 44.05 µg/m3 5.14 µg/m3
2022-09-28 07:00 94.29 µg/m3 1.12 µg/m3 7.49 µg/m3 42.25 µg/m3 13.26 µg/m3 0.73 mg/m3 22.98 °C 69.99 % 1,010.29 mbar 0.9 m/s 224.4 Deg 67.77 µg/m3 5.04 µg/m3
2022-09-28 06:00 72.43 µg/m3 0.57 µg/m3 13.91 µg/m3 12.49 µg/m3 8.34 µg/m3 0.48 mg/m3 22.42 °C 70.82 % 1,010.02 mbar 0.71 m/s 218.28 Deg 25.1 µg/m3 2.83 µg/m3
2022-09-28 05:00 52.88 µg/m3 0.38 µg/m3 19.44 µg/m3 13.16 µg/m3 8.83 µg/m3 0.29 mg/m3 22.38 °C 71.32 % 1,009.95 mbar 0.72 m/s 231.12 Deg 11.72 µg/m3 2.41 µg/m3
2022-09-28 04:00 27.42 µg/m3 0.28 µg/m3 43.19 µg/m3 10.14 µg/m3 6.56 µg/m3 0.22 mg/m3 22.32 °C 70.97 % 1,009.81 mbar 0.74 m/s 232.92 Deg 2.41 µg/m3 1.31 µg/m3
2022-09-28 03:00 17.17 µg/m3 0.2 µg/m3 50.86 µg/m3 8.97 µg/m3 5.87 µg/m3 0.21 mg/m3 22.48 °C 69.6 % 1,010.09 mbar 0.59 m/s 228.66 Deg 0.45 µg/m3 1.05 µg/m3
2022-09-28 02:00 17.54 µg/m3 0.26 µg/m3 53.1 µg/m3 10.63 µg/m3 4.66 µg/m3 0.2 mg/m3 22.9 °C 67.3 % 1,010.69 mbar 0.69 m/s 232.1 Deg 0.44 µg/m3 1 µg/m3
2022-09-28 01:00 19.17 µg/m3 0.19 µg/m3 54.4 µg/m3 10.9 µg/m3 4.54 µg/m3 0.2 mg/m3 23.36 °C 66.04 % 1,011.08 mbar 0.46 m/s 225.5 Deg 0.97 µg/m3 0.89 µg/m3
2022-09-28 00:00 21.87 µg/m3 0.21 µg/m3 57.15 µg/m3 11.91 µg/m3 4.78 µg/m3 0.23 mg/m3 23.64 °C 65.93 % 1,011.10 mbar 0.78 m/s 246.98 Deg 0.68 µg/m3 1.1 µg/m3
2022-09-27 23:00 23.65 µg/m3 0.2 µg/m3 54.35 µg/m3 14.26 µg/m3 5.53 µg/m3 0.25 mg/m3 23.76 °C 67.44 % 1,011.32 mbar 1.02 m/s 237.87 Deg 1.05 µg/m3 1.21 µg/m3
2022-09-27 22:00 27.84 µg/m3 0.19 µg/m3 55.11 µg/m3 14.81 µg/m3 7.36 µg/m3 0.27 mg/m3 24.01 °C 67.02 % 1,011.01 mbar 1.23 m/s 249.73 Deg 2.02 µg/m3 1.36 µg/m3
2022-09-27 21:00 25.67 µg/m3 0.31 µg/m3 58.78 µg/m3 13.73 µg/m3 6.69 µg/m3 0.28 mg/m3 24.25 °C 70.15 % 1,010.52 mbar 1.6 m/s 269.23 Deg 1.79 µg/m3 1.31 µg/m3
2022-09-27 20:00 33.17 µg/m3 0.23 µg/m3 52.23 µg/m3 15.63 µg/m3 7.62 µg/m3 0.31 mg/m3 24.51 °C 71.58 % 1,010.04 mbar 1.68 m/s 254.02 Deg 3.63 µg/m3 1.47 µg/m3
2022-09-27 19:00 38.26 µg/m3 0.3 µg/m3 53.23 µg/m3 17.07 µg/m3 8 µg/m3 0.31 mg/m3 24.76 °C 69.82 % 1,009.49 mbar 1.67 m/s 255.48 Deg 3.86 µg/m3 1.31 µg/m3
2022-09-27 18:00 35.63 µg/m3 0.24 µg/m3 57.43 µg/m3 15.29 µg/m3 7.15 µg/m3 0.29 mg/m3 25.22 °C 69.11 % 1,009.17 mbar 2.04 m/s 260.13 Deg 5.62 µg/m3 1.47 µg/m3
2022-09-27 17:00 31.21 µg/m3 0.26 µg/m3 62.52 µg/m3 15.1 µg/m3 6.83 µg/m3 0.29 mg/m3 25.49 °C 68.98 % 1,009.18 mbar 2.46 m/s 256.38 Deg 5.57 µg/m3 1.21 µg/m3
2022-09-27 16:00 32.2 µg/m3 0.27 µg/m3 64.5 µg/m3 15.24 µg/m3 6.47 µg/m3 0.27 mg/m3 26.07 °C 67.44 % 1,009.60 mbar 2.78 m/s 249.3 Deg 7.44 µg/m3 1 µg/m3
2022-09-27 15:00 32.45 µg/m3 0.29 µg/m3 62.97 µg/m3 26.3 µg/m3 8.11 µg/m3 0.26 mg/m3 26.07 °C 65.96 % 1,009.78 mbar 2.94 m/s 248.8 Deg 7.44 µg/m3 0.94 µg/m3
2022-09-27 14:00 32.57 µg/m3 0.3 µg/m3 63.41 µg/m3 21.4 µg/m3 7.84 µg/m3 0.25 mg/m3 26.41 °C 66.38 % 1,009.50 mbar 3.05 m/s 256.92 Deg 8.44 µg/m3 0.94 µg/m3
2022-09-27 13:00 29.47 µg/m3 0.3 µg/m3 59.63 µg/m3 18.88 µg/m3 7.7 µg/m3 0.26 mg/m3 26.17 °C 68.32 % 1,009.83 mbar 3 m/s 252.3 Deg 6.68 µg/m3 1.05 µg/m3
2022-09-27 12:00 26.61 µg/m3 0.29 µg/m3 61.73 µg/m3 20.52 µg/m3 8.38 µg/m3 0.26 mg/m3 26.47 °C 66.89 % 1,009.98 mbar 3.32 m/s 254.62 Deg 6.51 µg/m3 0.89 µg/m3
2022-09-27 11:00 27.82 µg/m3 0.27 µg/m3 60.93 µg/m3 24.51 µg/m3 8.62 µg/m3 0.24 mg/m3 26.52 °C 65.93 % 1,010.52 mbar 3.61 m/s 254.08 Deg 7.34 µg/m3 1.05 µg/m3
2022-09-27 10:00 31.96 µg/m3 0.3 µg/m3 58.47 µg/m3 36.32 µg/m3 10.61 µg/m3 0.24 mg/m3 26.77 °C 62.74 % 1,010.48 mbar 3.29 m/s 246.98 Deg 9.7 µg/m3 1.31 µg/m3
2022-09-27 09:00 45.16 µg/m3 0.33 µg/m3 48.11 µg/m3 28.26 µg/m3 10.11 µg/m3 0.3 mg/m3 26.41 °C 64.99 % 1,010.22 mbar 2.88 m/s 245.15 Deg 14.2 µg/m3 1.73 µg/m3
2022-09-27 08:00 65.75 µg/m3 0.44 µg/m3 33.01 µg/m3 34.49 µg/m3 12.02 µg/m3 0.38 mg/m3 26.07 °C 67.02 % 1,009.79 mbar 2.01 m/s 242.07 Deg 21.28 µg/m3 3.41 µg/m3
2022-09-27 07:00 79.59 µg/m3 0.71 µg/m3 12.99 µg/m3 37.47 µg/m3 13.6 µg/m3 0.55 mg/m3 24.92 °C 71.05 % 1,009.30 mbar 1.13 m/s 228.17 Deg 41.07 µg/m3 2.94 µg/m3
2022-09-27 06:00 60.9 µg/m3 0.39 µg/m3 19.15 µg/m3 27.86 µg/m3 11 µg/m3 0.42 mg/m3 24.57 °C 70.91 % 1,009.11 mbar 1.19 m/s 225.17 Deg 14.4 µg/m3 1.68 µg/m3
2022-09-27 05:00 33.45 µg/m3 0.22 µg/m3 36.14 µg/m3 20.59 µg/m3 9.14 µg/m3 0.26 mg/m3 24.81 °C 70.21 % 1,009.25 mbar 0.96 m/s 227.35 Deg 3.48 µg/m3 1.05 µg/m3
2022-09-27 04:00 18.02 µg/m3 0.2 µg/m3 55.93 µg/m3 13.91 µg/m3 7.9 µg/m3 0.21 mg/m3 24.82 °C 72.62 % 1,009.52 mbar 0.88 m/s 229.5 Deg 1.27 µg/m3 0.52 µg/m3
2022-09-27 03:00 9.61 µg/m3 0.17 µg/m3 66.42 µg/m3 12.11 µg/m3 6.68 µg/m3 0.27 mg/m3 24.94 °C 72 % 1,009.63 mbar 1.21 m/s 243.83 Deg 0.51 µg/m3 0.58 µg/m3
2022-09-27 02:00 10.12 µg/m3 0.19 µg/m3 65.11 µg/m3 12.25 µg/m3 6.65 µg/m3 0.27 mg/m3 25.36 °C 70.35 % 1,009.71 mbar 1.5 m/s 259.25 Deg 0.4 µg/m3 0.63 µg/m3
2022-09-27 01:00 18.56 µg/m3 0.23 µg/m3 54.27 µg/m3 13.97 µg/m3 7.31 µg/m3 0.28 mg/m3 25.61 °C 71.51 % 1,009.87 mbar 1.27 m/s 265.9 Deg 0.97 µg/m3 0.73 µg/m3
2022-09-27 00:00 17.36 µg/m3 0.23 µg/m3 56.78 µg/m3 15.11 µg/m3 8.21 µg/m3 0.29 mg/m3 25.72 °C 72.19 % 1,009.90 mbar 1.11 m/s 267.92 Deg 0.72 µg/m3 0.47 µg/m3
2022-09-26 23:00 16.58 µg/m3 0.21 µg/m3 60.6 µg/m3 16.01 µg/m3 10.82 µg/m3 0.33 mg/m3 26.14 °C 76.13 % 1,009.98 mbar 1.71 m/s 279.48 Deg 1.59 µg/m3 1.05 µg/m3
2022-09-26 22:00 16.84 µg/m3 0.24 µg/m3 68.44 µg/m3 30.14 µg/m3 20.1 µg/m3 0.36 mg/m3 26.75 °C 77.94 % 1,010.08 mbar 1.53 m/s 230.4 Deg 1.16 µg/m3 0.94 µg/m3
2022-09-26 21:00 17.62 µg/m3 0.18 µg/m3 74.89 µg/m3 30.1 µg/m3 20.07 µg/m3 0.36 mg/m3 26.76 °C 77.33 % 1,009.98 mbar 1.78 m/s 222.67 Deg 0.74 µg/m3 1 µg/m3
2022-09-26 20:00 18.44 µg/m3 0.15 µg/m3 70.65 µg/m3 24.53 µg/m3 16.37 µg/m3 0.36 mg/m3 26.78 °C 77.34 % 1,009.65 mbar 2.02 m/s 217.33 Deg 1.23 µg/m3 1.05 µg/m3
2022-09-26 19:00 18.41 µg/m3 0.18 µg/m3 65.78 µg/m3 22.23 µg/m3 12.61 µg/m3 0.35 mg/m3 26.97 °C 73.54 % 1,009.23 mbar 2.52 m/s 210.98 Deg 1.87 µg/m3 1.05 µg/m3
2022-09-26 18:00 18.8 µg/m3 0.27 µg/m3 61.76 µg/m3 25.09 µg/m3 11.86 µg/m3 0.34 mg/m3 27.49 °C 68.69 % 1,009.29 mbar 2.91 m/s 208.78 Deg 2.79 µg/m3 1 µg/m3
2022-09-26 17:00 17.47 µg/m3 0.34 µg/m3 60.75 µg/m3 24.8 µg/m3 11.05 µg/m3 0.34 mg/m3 28.04 °C 64.76 % 1,009.26 mbar 2.94 m/s 199.95 Deg 5.86 µg/m3 1.21 µg/m3
2022-09-26 16:00 18.17 µg/m3 0.35 µg/m3 60.46 µg/m3 28.79 µg/m3 12.34 µg/m3 0.35 mg/m3 28.35 °C 64.17 % 1,009.38 mbar 2.86 m/s 189.75 Deg 6.2 µg/m3 1 µg/m3
2022-09-26 15:00 16.78 µg/m3 0.28 µg/m3 61.26 µg/m3 35.85 µg/m3 14.1 µg/m3 0.34 mg/m3 28.31 °C 64.65 % 1,009.83 mbar 3.25 m/s 191.15 Deg 6.82 µg/m3 0.89 µg/m3
2022-09-26 14:00 15.38 µg/m3 0.3 µg/m3 62.68 µg/m3 34.73 µg/m3 14.25 µg/m3 0.32 mg/m3 28.01 °C 66.37 % 1,010.59 mbar 3.22 m/s 181.17 Deg 7.93 µg/m3 0.84 µg/m3
2022-09-26 13:00 19.52 µg/m3 0.33 µg/m3 59.59 µg/m3 33.4 µg/m3 13.91 µg/m3 0.34 mg/m3 27.75 °C 68.54 % 1,011.32 mbar 3.15 m/s 184.55 Deg 8.48 µg/m3 1.05 µg/m3
2022-09-26 12:00 19.41 µg/m3 0.3 µg/m3 57.47 µg/m3 32.15 µg/m3 12.65 µg/m3 0.33 mg/m3 27.71 °C 69.4 % 1,012.00 mbar 3.13 m/s 177.03 Deg 11.31 µg/m3 1.21 µg/m3
2022-09-26 11:00 25.27 µg/m3 0.33 µg/m3 54.11 µg/m3 31.1 µg/m3 10.93 µg/m3 0.37 mg/m3 27.35 °C 69.65 % 1,012.39 mbar 2.58 m/s 181.08 Deg 13.04 µg/m3 2.15 µg/m3
2022-09-26 10:00 25.22 µg/m3 0.33 µg/m3 52.98 µg/m3 31.07 µg/m3 11.13 µg/m3 0.35 mg/m3 27.03 °C 69.91 % 1,012.67 mbar 2.38 m/s 182.97 Deg 14.34 µg/m3 1.26 µg/m3
2022-09-26 09:00 30.5 µg/m3 0.3 µg/m3 55.5 µg/m3 27.73 µg/m3 9.75 µg/m3 0.34 mg/m3 26.79 °C 68.97 % 1,012.83 mbar 2.52 m/s 189.02 Deg 10.25 µg/m3 1.21 µg/m3
2022-09-26 08:00 33.43 µg/m3 0.33 µg/m3 54.55 µg/m3 30.72 µg/m3 9.46 µg/m3 0.36 mg/m3 26.38 °C 68.31 % 1,012.46 mbar 2.3 m/s 170.22 Deg 12.42 µg/m3 2.73 µg/m3
2022-09-26 07:00 42.07 µg/m3 0.31 µg/m3 47.31 µg/m3 24.51 µg/m3 8.52 µg/m3 0.4 mg/m3 25.79 °C 69.01 % 1,012.32 mbar 2.02 m/s 156.67 Deg 13.35 µg/m3 1.1 µg/m3
2022-09-26 06:00 32.44 µg/m3 0.28 µg/m3 51.2 µg/m3 16.13 µg/m3 7.51 µg/m3 0.32 mg/m3 25.47 °C 70.97 % 1,012.43 mbar 1.65 m/s 156.12 Deg 8.66 µg/m3 0.79 µg/m3
2022-09-26 05:00 15.07 µg/m3 0.23 µg/m3 62.28 µg/m3 9.97 µg/m3 6.79 µg/m3 0.18 mg/m3 25.19 °C 73.28 % 1,012.65 mbar 1.43 m/s 159.07 Deg 2.14 µg/m3 0.47 µg/m3
2022-09-26 04:00 8.24 µg/m3 0.22 µg/m3 73.19 µg/m3 12.19 µg/m3 5.82 µg/m3 0.11 mg/m3 25.02 °C 69.92 % 1,013.11 mbar 1.23 m/s 169.5 Deg 0.9 µg/m3 0.42 µg/m3
2022-09-26 03:00 11.5 µg/m3 0.23 µg/m3 73.02 µg/m3 10.68 µg/m3 4.83 µg/m3 0.06 mg/m3 24.95 °C 66.92 % 1,013.74 mbar 1.02 m/s 147.13 Deg 3.75 µg/m3 0.63 µg/m3
2022-09-26 02:00 6.32 µg/m3 0.2 µg/m3 77.84 µg/m3 10.05 µg/m3 4.86 µg/m3 0 mg/m3 25.1 °C 66.2 % 1,014.47 mbar 1.34 m/s 157.45 Deg 1.05 µg/m3 0.58 µg/m3
2022-09-26 01:00 10.76 µg/m3 0.26 µg/m3 74.6 µg/m3 10.37 µg/m3 4.83 µg/m3 0.08 mg/m3 25.12 °C 66.84 % 1,015.01 mbar 1.34 m/s 160.77 Deg 2.53 µg/m3 0.52 µg/m3
2022-09-26 00:00 7.67 µg/m3 0.22 µg/m3 78.28 µg/m3 9.74 µg/m3 4.91 µg/m3 0.1 mg/m3 25.23 °C 66.23 % 1,015.40 mbar 1.69 m/s 163.1 Deg 2.02 µg/m3 0.63 µg/m3
2022-09-25 23:00 11.91 µg/m3 0.24 µg/m3 75.35 µg/m3 11.26 µg/m3 5.34 µg/m3 0.14 mg/m3 25.24 °C 65.81 % 1,015.73 mbar 1.73 m/s 161.72 Deg 1.92 µg/m3 0.79 µg/m3
2022-09-25 22:00 13.63 µg/m3 0.24 µg/m3 74.2 µg/m3 11.14 µg/m3 5.37 µg/m3 0.16 mg/m3 25.3 °C 65.06 % 1,015.95 mbar 1.84 m/s 161.28 Deg 2.31 µg/m3 0.89 µg/m3
2022-09-25 21:00 16.59 µg/m3 0.24 µg/m3 72.41 µg/m3 13.06 µg/m3 5.61 µg/m3 0.18 mg/m3 25.4 °C 64.22 % 1,015.88 mbar 2.02 m/s 161.02 Deg 3.55 µg/m3 0.73 µg/m3
2022-09-25 20:00 14.79 µg/m3 0.3 µg/m3 72.34 µg/m3 13.98 µg/m3 6.08 µg/m3 0.19 mg/m3 25.5 °C 64 % 1,015.53 mbar 2.11 m/s 167.28 Deg 5.72 µg/m3 0.94 µg/m3
2022-09-25 19:00 19.5 µg/m3 0.23 µg/m3 69.88 µg/m3 15.56 µg/m3 6.37 µg/m3 0.2 mg/m3 25.55 °C 63.54 % 1,015.07 mbar 2.17 m/s 160.57 Deg 6.15 µg/m3 1 µg/m3
2022-09-25 18:00 16.24 µg/m3 0.36 µg/m3 70.53 µg/m3 15.39 µg/m3 6.32 µg/m3 0.19 mg/m3 25.84 °C 63.34 % 1,014.89 mbar 2.54 m/s 165.47 Deg 8.22 µg/m3 0.94 µg/m3

It is to be noted that the data is provisional and subject to quality assurance procedures. For validated data kindly refer your request to contact.air@era.org.mt